createdAt,value
2019-02-12T00:02:01.547Z,3.13
2019-02-12T00:04:28.480Z,3.20
2019-02-12T00:06:55.421Z,2.60
2019-02-12T00:09:22.387Z,3.20
2019-02-12T00:11:50.817Z,2.87
2019-02-12T00:14:17.765Z,3.30
2019-02-12T00:16:44.715Z,3.77
2019-02-12T00:19:11.760Z,3.10
2019-02-12T00:21:38.701Z,3.00
2019-02-12T00:24:05.669Z,3.45
2019-02-12T00:26:32.616Z,8.50
2019-02-12T00:28:59.547Z,4.63
2019-02-12T00:31:26.522Z,3.43
2019-02-12T00:33:53.473Z,3.43
2019-02-12T00:36:20.419Z,3.80
2019-02-12T00:38:47.371Z,3.30
2019-02-12T00:41:14.330Z,3.27
2019-02-12T00:43:41.273Z,3.90
2019-02-12T00:46:08.240Z,3.53
2019-02-12T00:48:35.185Z,3.27
2019-02-12T00:51:02.152Z,3.40
2019-02-12T00:53:29.140Z,4.00
2019-02-12T00:55:56.077Z,3.40
2019-02-12T00:58:23.025Z,3.73
2019-02-12T01:00:49.980Z,3.47
2019-02-12T01:03:16.924Z,3.77
2019-02-12T01:05:43.875Z,4.10
2019-02-12T01:08:10.849Z,4.20
2019-02-12T01:10:37.804Z,3.77
2019-02-12T01:13:06.224Z,3.87
2019-02-12T01:15:33.200Z,3.80
2019-02-12T01:18:00.139Z,4.50
2019-02-12T01:20:27.090Z,4.40
2019-02-12T01:22:54.049Z,4.43
2019-02-12T01:25:21.000Z,4.27
2019-02-12T01:27:47.956Z,4.53
2019-02-12T01:30:16.815Z,4.67
2019-02-12T01:32:42.308Z,4.80
2019-02-12T01:35:09.247Z,4.90
2019-02-12T01:37:36.207Z,4.87
2019-02-12T01:40:03.196Z,5.37
2019-02-12T01:42:30.139Z,4.97
2019-02-12T01:44:57.110Z,5.00
2019-02-12T01:47:24.062Z,5.70
2019-02-12T01:49:51.003Z,5.40
2019-02-12T01:52:17.976Z,5.20
2019-02-12T01:54:44.918Z,5.40
2019-02-12T01:57:11.876Z,5.30
2019-02-12T01:59:38.840Z,5.60
2019-02-12T02:02:05.780Z,5.77
2019-02-12T02:04:32.714Z,5.43
2019-02-12T02:06:59.688Z,5.00
2019-02-12T02:09:26.619Z,5.13
2019-02-12T02:11:53.573Z,5.73
2019-02-12T02:14:21.117Z,4.97
2019-02-12T02:16:48.064Z,5.80
2019-02-12T02:19:15.014Z,5.83
2019-02-12T02:21:44.074Z,4.70
2019-02-12T02:24:08.957Z,6.20
2019-02-12T02:26:35.910Z,5.33
2019-02-12T02:29:02.871Z,4.73
2019-02-12T02:31:29.821Z,5.43
2019-02-12T02:33:56.815Z,5.07
2019-02-12T02:36:23.766Z,5.90
2019-02-12T02:38:50.712Z,4.90
2019-02-12T02:41:17.682Z,5.27
2019-02-12T02:43:44.638Z,5.40
2019-02-12T02:46:11.590Z,5.50
2019-02-12T02:48:38.520Z,5.10
2019-02-12T02:51:05.493Z,5.30
2019-02-12T02:53:32.434Z,4.73
2019-02-12T02:55:59.411Z,4.90
2019-02-12T02:58:26.380Z,4.63
2019-02-12T03:00:53.334Z,4.67
2019-02-12T03:03:20.280Z,4.27
2019-02-12T03:05:47.267Z,4.30
2019-02-12T03:08:14.204Z,4.60
2019-02-12T03:10:41.156Z,5.10
2019-02-12T03:13:08.153Z,4.87
2019-02-12T03:15:35.549Z,4.70
2019-02-12T03:18:02.501Z,4.23
2019-02-12T03:20:29.476Z,4.43
2019-02-12T03:22:56.434Z,4.33
2019-02-12T03:25:23.393Z,5.10
2019-02-12T03:27:50.347Z,5.03
2019-02-12T03:30:17.314Z,5.17
2019-02-12T03:32:44.272Z,4.40
2019-02-12T03:35:11.239Z,4.73
2019-02-12T03:37:38.193Z,4.37
2019-02-12T03:40:06.369Z,4.43
2019-02-12T03:42:33.329Z,4.27
2019-02-12T03:45:00.502Z,5.00
2019-02-12T03:47:27.228Z,4.73
2019-02-12T03:49:54.189Z,4.43
2019-02-12T03:52:21.148Z,4.10
2019-02-12T03:54:48.177Z,4.60
2019-02-12T03:57:15.141Z,4.70
2019-02-12T03:59:42.102Z,4.20
2019-02-12T04:02:09.049Z,4.40
2019-02-12T04:04:36.052Z,4.40
2019-02-12T04:07:03.010Z,4.53
2019-02-12T04:09:29.957Z,4.43
2019-02-12T04:11:56.982Z,4.23
2019-02-12T04:14:23.946Z,3.97
2019-02-12T04:16:52.520Z,5.03
2019-02-12T04:19:19.475Z,3.77
2019-02-12T04:21:46.417Z,4.40
2019-02-12T04:24:13.362Z,4.10
2019-02-12T04:26:40.342Z,4.60
2019-02-12T04:29:07.300Z,4.63
2019-02-12T04:31:34.258Z,4.10
2019-02-12T04:34:01.222Z,3.90
2019-02-12T04:36:28.267Z,4.13
2019-02-12T04:38:55.216Z,4.30
2019-02-12T04:41:22.172Z,4.23
2019-02-12T04:43:49.120Z,4.43
2019-02-12T04:46:16.052Z,3.90
2019-02-12T04:48:43.026Z,4.83
2019-02-12T04:51:09.993Z,4.13
2019-02-12T04:53:36.913Z,4.47
2019-02-12T04:56:03.867Z,4.37
2019-02-12T04:58:30.792Z,4.33
2019-02-12T05:00:59.403Z,4.50
2019-02-12T05:03:24.719Z,4.53
2019-02-12T05:05:51.668Z,4.57
2019-02-12T05:08:18.604Z,4.57
2019-02-12T05:10:52.025Z,4.80
2019-02-12T05:13:18.978Z,5.00
2019-02-12T05:15:45.944Z,4.33
2019-02-12T05:18:14.204Z,5.03
2019-02-12T05:20:41.152Z,4.50
2019-02-12T05:23:08.098Z,5.07
2019-02-12T05:25:35.066Z,4.87
2019-02-12T05:28:02.002Z,4.83
2019-02-12T05:30:28.946Z,4.63
2019-02-12T05:32:55.923Z,4.63
2019-02-12T05:35:22.872Z,4.90
2019-02-12T05:37:49.847Z,5.20
2019-02-12T05:40:16.773Z,5.47
2019-02-12T05:42:43.738Z,5.43
2019-02-12T05:45:10.710Z,5.33
2019-02-12T05:47:37.682Z,5.27
2019-02-12T05:50:06.712Z,5.40
2019-02-12T05:52:33.646Z,5.33
2019-02-12T05:55:00.637Z,4.80
2019-02-12T05:57:27.568Z,4.80
2019-02-12T05:59:54.554Z,5.27
2019-02-12T06:02:21.509Z,5.67
2019-02-12T06:04:48.461Z,5.07
2019-02-12T06:07:15.408Z,5.37
2019-02-12T06:09:42.372Z,5.17
2019-02-12T06:12:09.532Z,4.93
2019-02-12T06:14:36.477Z,6.90
2019-02-12T06:17:03.469Z,10.60
2019-02-12T06:19:31.643Z,5.10
2019-02-12T06:21:58.588Z,4.93
2019-02-12T06:24:25.577Z,5.57
2019-02-12T06:26:52.502Z,6.87
2019-02-12T06:29:19.456Z,7.03
2019-02-12T06:31:46.471Z,15.37
2019-02-12T06:34:13.416Z,12.93
2019-02-12T06:36:40.361Z,6.40
2019-02-12T06:39:07.348Z,5.40
2019-02-12T06:41:34.367Z,4.90
2019-02-12T06:44:01.324Z,5.43
2019-02-12T06:46:29.612Z,5.37
2019-02-12T06:48:55.303Z,4.70
2019-02-12T06:51:22.236Z,4.67
2019-02-12T06:53:49.228Z,4.53
2019-02-12T06:56:16.172Z,4.97
2019-02-12T06:58:43.263Z,5.13
2019-02-12T07:01:10.253Z,5.43
2019-02-12T07:03:51.437Z,4.93
2019-02-12T07:06:30.845Z,4.40
2019-02-12T07:09:06.128Z,5.27
2019-02-12T07:12:03.941Z,6.00
2019-02-12T07:14:39.009Z,7.50
2019-02-12T07:17:16.283Z,4.87
2019-02-12T07:20:00.531Z,3.97
2019-02-12T07:22:55.202Z,4.50
2019-02-12T07:25:46.233Z,4.17
2019-02-12T07:28:22.498Z,4.20
2019-02-12T07:31:24.519Z,4.97
2019-02-12T07:34:03.227Z,4.63
2019-02-12T07:36:58.194Z,4.47
2019-02-12T07:39:45.042Z,4.57
2019-02-12T07:42:39.188Z,3.57
2019-02-12T07:45:22.432Z,4.40
2019-02-12T07:47:58.109Z,4.30
2019-02-12T07:51:00.876Z,4.57
2019-02-12T07:53:50.747Z,4.30
2019-02-12T07:56:38.672Z,4.00
2019-02-12T07:59:25.652Z,4.70
2019-02-12T08:02:07.240Z,5.30
2019-02-12T08:04:52.023Z,4.50
2019-02-12T08:07:53.633Z,5.20
2019-02-12T08:11:03.734Z,4.40
2019-02-12T08:13:45.667Z,4.50
2019-02-12T08:16:25.315Z,4.20
2019-02-12T08:19:18.280Z,4.10
2019-02-12T08:22:14.390Z,4.07
2019-02-12T08:25:10.631Z,4.37
2019-02-12T08:28:05.809Z,4.97
2019-02-12T08:30:41.557Z,4.17
2019-02-12T08:33:53.612Z,4.70
2019-02-12T08:36:35.806Z,4.17
2019-02-12T08:39:27.645Z,4.30
2019-02-12T08:42:09.527Z,3.57
2019-02-12T08:44:49.472Z,4.20
2019-02-12T08:47:47.680Z,4.37
2019-02-12T08:50:56.932Z,4.20
2019-02-12T08:53:36.825Z,3.90
2019-02-12T08:56:21.344Z,3.87
2019-02-12T08:59:13.980Z,4.20
2019-02-12T09:02:17.435Z,3.40
2019-02-12T09:05:04.163Z,3.33
2019-02-12T09:07:56.620Z,3.60
2019-02-12T09:10:46.040Z,3.80
2019-02-12T09:13:26.776Z,3.73
2019-02-12T09:16:16.070Z,3.33
2019-02-12T09:19:10.619Z,3.40
2019-02-12T11:16:47.586Z,2.40
2019-02-12T11:19:14.712Z,2.10
2019-02-12T11:21:41.667Z,2.10
2019-02-12T11:24:08.965Z,2.73
2019-02-12T11:26:36.479Z,2.67
2019-02-12T11:29:03.452Z,2.47
2019-02-12T11:31:32.821Z,2.70
2019-02-12T11:33:59.805Z,2.30
2019-02-12T11:36:26.755Z,3.00
2019-02-12T11:38:53.726Z,2.97
2019-02-12T11:41:20.720Z,3.03
2019-02-12T11:43:47.675Z,2.87
2019-02-12T11:46:14.651Z,2.80
2019-02-12T11:48:41.612Z,2.63
2019-02-12T11:51:08.590Z,2.50
2019-02-12T11:53:35.615Z,2.70
2019-02-12T11:56:02.564Z,2.80
2019-02-12T11:58:29.487Z,2.33
2019-02-12T12:00:58.765Z,2.80
2019-02-12T12:03:25.703Z,3.00
2019-02-12T12:05:52.660Z,2.40
2019-02-12T12:08:19.639Z,2.37
2019-02-12T12:10:46.614Z,3.13
2019-02-12T12:24:51.423Z,2.63
2019-02-12T12:27:13.630Z,2.50
2019-02-12T12:29:40.596Z,2.77
2019-02-12T12:32:07.545Z,2.20
2019-02-12T12:34:34.510Z,1.77
2019-02-12T12:37:01.458Z,2.07
2019-02-12T12:39:28.424Z,2.37
2019-02-12T12:41:55.351Z,1.90
2019-02-12T12:44:22.299Z,1.40
2019-02-12T12:46:49.250Z,2.43
2019-02-12T12:49:16.196Z,2.13
2019-02-12T12:51:43.127Z,4.43
2019-02-12T12:54:10.128Z,2.80
2019-02-12T12:56:37.089Z,2.00
2019-02-12T12:59:04.103Z,2.10
2019-02-12T13:01:31.082Z,2.57
2019-02-12T13:03:58.068Z,1.80
2019-02-12T13:06:25.035Z,2.30
2019-02-12T13:08:52.196Z,1.90
2019-02-12T13:11:19.214Z,2.00
2019-02-12T13:13:47.850Z,2.17
2019-02-12T13:16:13.096Z,2.10
2019-02-12T13:18:40.041Z,2.20
2019-02-12T13:21:07.016Z,2.20
2019-02-12T13:23:34.015Z,2.37
2019-02-12T13:26:01.450Z,2.17
2019-02-12T13:28:28.405Z,2.40
2019-02-12T13:30:55.376Z,2.20
2019-02-12T13:33:22.328Z,2.53
2019-02-12T13:35:49.281Z,2.10
2019-02-12T13:38:16.242Z,1.97
2019-02-12T13:40:43.225Z,2.23
2019-02-12T13:43:10.180Z,4.93
2019-02-12T13:45:37.155Z,2.40
2019-02-12T13:48:04.212Z,1.97
2019-02-12T13:50:31.151Z,2.40
2019-02-12T13:52:58.108Z,2.30
2019-02-12T13:55:25.041Z,2.70
2019-02-12T13:57:52.000Z,1.83
2019-02-12T14:00:19.072Z,2.20
2019-02-12T14:02:46.064Z,2.10
2019-02-12T14:05:15.490Z,2.53
2019-02-12T14:07:42.469Z,2.47
2019-02-12T14:10:09.442Z,2.10
2019-02-12T14:12:36.388Z,2.27
2019-02-12T14:15:03.844Z,2.30
2019-02-12T14:17:30.847Z,2.10
2019-02-12T14:19:57.827Z,1.90
2019-02-12T14:22:24.832Z,1.63
2019-02-12T14:24:51.780Z,2.27
2019-02-12T14:27:19.039Z,2.10
2019-02-12T14:29:46.006Z,1.90
2019-02-12T14:32:12.952Z,2.33
2019-02-12T14:34:39.922Z,2.20
2019-02-12T14:37:06.868Z,2.23
2019-02-12T14:39:33.819Z,2.00
2019-02-12T14:42:00.771Z,2.20
2019-02-12T14:44:27.736Z,2.17
2019-02-12T14:46:54.694Z,2.03
2019-02-12T14:49:21.642Z,2.20
2019-02-12T14:51:48.592Z,2.10
2019-02-12T14:54:15.650Z,2.30
2019-02-12T14:56:42.932Z,2.30
2019-02-12T14:59:09.918Z,2.23
2019-02-12T15:01:36.864Z,2.20
2019-02-12T15:04:03.842Z,2.13
2019-02-12T15:06:30.800Z,2.63
2019-02-12T15:08:57.779Z,2.50
2019-02-12T15:11:24.698Z,2.27
2019-02-12T15:13:51.672Z,2.50
2019-02-12T15:16:18.617Z,2.37
2019-02-12T15:18:45.656Z,2.37
2019-02-12T15:21:12.632Z,2.53
2019-02-12T15:23:39.594Z,2.47
2019-02-12T15:26:06.527Z,2.40
2019-02-12T15:28:33.686Z,2.20
2019-02-12T15:31:00.622Z,2.03
2019-02-12T15:33:27.629Z,2.50
2019-02-12T15:35:54.577Z,2.47
2019-02-12T15:38:21.509Z,2.10
2019-02-12T15:40:48.450Z,2.30
2019-02-12T15:43:15.436Z,2.27
2019-02-12T15:45:42.375Z,2.27
2019-02-12T15:48:09.326Z,2.47
2019-02-12T15:50:37.239Z,2.13
2019-02-12T15:53:04.076Z,2.03
2019-02-12T15:55:31.008Z,2.10
2019-02-12T15:57:58.080Z,2.10
2019-02-12T16:00:25.374Z,2.07
2019-02-12T16:02:54.043Z,2.30
2019-02-12T16:05:19.228Z,2.37
2019-02-12T16:07:47.446Z,2.23
2019-02-12T16:10:14.833Z,2.63
2019-02-12T16:12:41.374Z,2.67
2019-02-12T16:15:10.743Z,2.40
2019-02-12T16:17:39.316Z,2.40
2019-02-12T16:20:04.722Z,2.27
2019-02-12T16:22:31.699Z,2.23
2019-02-12T16:24:58.677Z,2.40
2019-02-12T16:27:25.671Z,2.83
2019-02-12T16:29:53.846Z,2.13
2019-02-12T16:32:20.797Z,2.27
2019-02-12T16:34:47.767Z,2.40
2019-02-12T16:37:14.708Z,2.50
2019-02-12T16:39:41.652Z,2.50
2019-02-12T16:42:08.600Z,8.77
2019-02-12T16:44:35.536Z,7.20
2019-02-12T16:47:02.509Z,2.60
2019-02-12T16:49:29.468Z,2.70
2019-02-12T16:51:56.447Z,2.67
2019-02-12T16:54:23.405Z,2.73
2019-02-12T16:56:50.364Z,2.57
2019-02-12T16:59:17.396Z,2.37
2019-02-12T17:01:44.376Z,2.77
2019-02-12T17:04:11.320Z,2.90
2019-02-12T17:06:38.300Z,3.47
2019-02-12T17:09:05.264Z,2.67
2019-02-12T17:11:32.264Z,2.60
2019-02-12T17:13:59.655Z,3.13
2019-02-12T17:16:26.136Z,2.83
2019-02-12T17:18:53.142Z,2.80
2019-02-12T17:21:20.072Z,2.37
2019-02-12T17:23:46.987Z,11.77
2019-02-12T17:26:16.455Z,8.97
2019-02-12T17:28:40.945Z,8.80
2019-02-12T17:31:09.189Z,3.70
2019-02-12T17:33:36.161Z,3.60
2019-02-12T17:36:03.095Z,3.13
2019-02-12T17:38:30.054Z,3.10
2019-02-12T17:40:57.052Z,3.63
2019-02-12T17:43:23.998Z,3.40
2019-02-12T17:45:50.957Z,3.40
2019-02-12T17:48:17.931Z,3.83
2019-02-12T17:50:44.872Z,5.30
2019-02-12T17:53:11.880Z,3.90
2019-02-12T17:55:38.896Z,3.53
2019-02-12T17:58:05.906Z,5.10
2019-02-12T18:00:35.069Z,5.83
2019-02-12T18:03:02.057Z,5.70
2019-02-12T18:05:29.010Z,5.83
2019-02-12T18:07:55.984Z,8.00
2019-02-12T18:10:22.944Z,7.77
2019-02-12T18:12:49.962Z,8.30
2019-02-12T18:15:16.936Z,6.00
2019-02-12T18:17:43.938Z,5.83
2019-02-12T18:20:10.971Z,4.50
2019-02-12T18:22:37.907Z,3.50
2019-02-12T18:25:05.366Z,3.50
2019-02-12T18:27:32.421Z,4.17
2019-02-12T18:29:59.383Z,3.90
2019-02-12T18:32:26.686Z,3.97
2019-02-12T18:34:53.907Z,3.40
2019-02-12T18:37:20.813Z,4.03
2019-02-12T18:39:47.803Z,3.77
2019-02-12T18:42:14.749Z,3.63
2019-02-12T18:44:41.719Z,4.03
2019-02-12T18:47:08.692Z,3.73
2019-02-12T18:49:35.652Z,3.80
2019-02-12T18:52:02.705Z,3.83
2019-02-12T18:54:29.704Z,4.33
2019-02-12T18:56:56.699Z,4.80
2019-02-12T18:59:23.669Z,3.50
2019-02-12T19:01:50.671Z,3.37
2019-02-12T19:04:17.752Z,3.80
2019-02-12T19:06:44.696Z,4.43
2019-02-12T19:09:13.415Z,5.20
2019-02-12T19:11:48.583Z,4.50
2019-02-12T19:14:07.300Z,4.90
2019-02-12T19:16:34.282Z,4.97
2019-02-12T19:19:01.237Z,4.27
2019-02-12T19:21:28.205Z,4.90
2019-02-12T19:23:55.176Z,5.40
2019-02-12T19:26:22.163Z,4.90
2019-02-12T19:28:49.113Z,4.37
2019-02-12T19:31:16.112Z,4.80
2019-02-12T19:33:44.607Z,5.70
2019-02-12T19:36:11.616Z,4.87
2019-02-12T19:38:38.555Z,5.33
2019-02-12T19:41:05.507Z,5.97
2019-02-12T19:43:32.471Z,5.00
2019-02-12T19:45:59.440Z,7.37
2019-02-12T19:48:26.390Z,6.43
2019-02-12T19:50:53.335Z,5.87
2019-02-12T19:53:20.335Z,7.40
2019-02-12T19:55:47.296Z,6.53
2019-02-12T19:58:14.289Z,5.93
2019-02-12T20:00:41.278Z,5.63
2019-02-12T20:03:08.237Z,4.87
2019-02-12T20:05:35.241Z,4.83
2019-02-12T20:08:02.302Z,5.53
2019-02-12T20:10:29.253Z,4.93
2019-02-12T20:12:56.253Z,5.23
2019-02-12T20:15:23.295Z,5.67
2019-02-12T20:17:50.349Z,5.23
2019-02-12T20:20:17.545Z,5.80
2019-02-12T20:22:44.605Z,5.87
2019-02-12T20:25:11.657Z,4.90
2019-02-12T20:27:38.637Z,5.43
2019-02-12T20:30:06.933Z,6.17
2019-02-12T20:32:33.897Z,7.20
2019-02-12T20:35:02.231Z,6.80
2019-02-12T20:37:29.260Z,5.87
2019-02-12T20:39:56.215Z,4.80
2019-02-12T20:42:23.224Z,5.40
2019-02-12T20:44:50.232Z,5.20
2019-02-12T20:47:17.210Z,5.40
2019-02-12T20:49:44.163Z,6.23
2019-02-12T20:52:11.153Z,7.30
2019-02-12T20:54:38.121Z,6.20
2019-02-12T20:57:05.072Z,6.30
2019-02-12T20:59:32.056Z,6.20
2019-02-12T21:01:58.993Z,7.37
2019-02-12T21:04:25.953Z,7.13
2019-02-12T21:06:52.973Z,6.00
2019-02-12T21:09:19.946Z,5.63
2019-02-12T21:11:46.923Z,5.73
2019-02-12T21:14:13.912Z,5.97
2019-02-12T21:16:40.861Z,5.97
2019-02-12T21:19:07.868Z,5.33
2019-02-12T21:21:34.833Z,5.90
2019-02-12T21:24:01.861Z,5.53
2019-02-12T21:26:28.809Z,5.97
2019-02-12T21:28:55.778Z,5.70
2019-02-12T21:31:22.740Z,5.97
2019-02-12T21:33:49.688Z,6.50
2019-02-12T21:36:16.985Z,5.67
2019-02-12T21:38:43.932Z,4.60
2019-02-12T21:41:11.400Z,4.90
2019-02-12T21:43:37.890Z,5.33
2019-02-12T21:46:04.840Z,5.90
2019-02-12T21:48:31.788Z,5.57
2019-02-12T21:50:58.873Z,6.50
2019-02-12T21:53:25.869Z,6.07
2019-02-12T21:55:52.878Z,7.20
2019-02-12T21:58:19.847Z,5.90
2019-02-12T22:00:46.922Z,5.47
2019-02-12T22:03:13.912Z,5.60
2019-02-12T22:05:40.912Z,5.90
2019-02-12T22:08:09.032Z,5.27
2019-02-12T22:10:36.000Z,5.17
2019-02-12T22:13:02.992Z,5.23
2019-02-12T22:15:29.936Z,4.17
2019-02-12T22:17:56.906Z,4.40
2019-02-12T22:20:23.909Z,4.97
2019-02-12T22:22:50.863Z,4.90
2019-02-12T22:25:17.823Z,4.53
2019-02-12T22:27:44.796Z,5.00
2019-02-12T22:30:14.694Z,5.23
2019-02-12T22:32:41.665Z,5.07
2019-02-12T22:35:08.708Z,4.70
2019-02-12T22:37:35.928Z,4.67
2019-02-12T22:40:03.136Z,5.87
2019-02-12T22:42:30.123Z,6.13
2019-02-12T22:44:57.102Z,5.33
2019-02-12T22:47:25.372Z,5.20
2019-02-12T22:49:52.361Z,4.87
2019-02-12T22:52:19.332Z,5.53
2019-02-12T22:54:46.313Z,5.77
2019-02-12T22:57:13.400Z,5.43
2019-02-12T22:59:40.397Z,4.80
2019-02-12T23:02:07.380Z,4.33
2019-02-12T23:04:34.377Z,5.30
2019-02-12T23:07:01.314Z,4.77
2019-02-12T23:09:28.271Z,5.17
2019-02-12T23:11:55.246Z,4.77
2019-02-12T23:14:22.189Z,4.60
2019-02-12T23:16:49.145Z,4.47
2019-02-12T23:19:16.256Z,5.33
2019-02-12T23:21:43.191Z,5.10
2019-02-12T23:24:10.145Z,4.70
2019-02-12T23:26:37.162Z,4.80
2019-02-12T23:29:04.095Z,4.87
2019-02-12T23:31:31.041Z,4.80
2019-02-12T23:33:58.026Z,4.30
2019-02-12T23:36:24.973Z,4.50
2019-02-12T23:38:52.382Z,5.80
2019-02-12T23:41:19.387Z,5.60
2019-02-12T23:43:46.398Z,5.07
2019-02-12T23:46:13.356Z,5.70
2019-02-12T23:48:40.338Z,4.90
2019-02-12T23:51:07.280Z,5.57
2019-02-12T23:53:34.302Z,5.27
2019-02-12T23:56:01.226Z,5.23
2019-02-12T23:58:28.152Z,5.47
